createdAt,value
2023-12-08T00:02:20.628Z,37
2023-12-08T00:31:30.359Z,36
2023-12-08T01:00:21.781Z,34
2023-12-08T01:29:06.041Z,34
2023-12-08T01:57:58.428Z,31
2023-12-08T02:26:48.678Z,34
2023-12-08T02:55:46.365Z,31
2023-12-08T03:24:58.384Z,31
2023-12-08T03:53:54.517Z,28
2023-12-08T04:22:45.617Z,13
2023-12-08T04:51:45.993Z,18
2023-12-08T05:20:49.395Z,20
2023-12-08T05:49:39.220Z,23
2023-12-08T06:18:36.806Z,25
2023-12-08T06:47:23.725Z,28
2023-12-08T07:16:16.020Z,27
2023-12-08T07:45:15.945Z,28
2023-12-08T08:14:15.279Z,27
2023-12-08T08:43:22.343Z,30
2023-12-08T09:12:29.580Z,35
2023-12-08T09:41:22.788Z,30
2023-12-08T10:10:26.914Z,30
2023-12-08T10:39:30.330Z,33
2023-12-08T11:08:32.425Z,25
2023-12-08T11:37:36.790Z,26
2023-12-08T12:06:37.827Z,24
2023-12-08T12:35:30.353Z,20
2023-12-08T13:04:27.595Z,18
2023-12-08T13:33:19.086Z,24
2023-12-08T14:02:01.059Z,19
2023-12-08T14:30:52.402Z,10
2023-12-08T14:59:45.724Z,10
2023-12-08T15:28:48.948Z,13
2023-12-08T15:57:44.806Z,18
2023-12-08T16:26:51.712Z,20
2023-12-08T16:55:44.461Z,23
2023-12-08T17:24:43.477Z,27
2023-12-08T17:53:49.956Z,23
2023-12-08T18:22:43.789Z,23
2023-12-08T18:51:48.292Z,27
2023-12-08T19:20:52.208Z,28
2023-12-08T19:49:52.344Z,27
2023-12-08T20:18:54.287Z,27
2023-12-08T20:47:52.449Z,26
2023-12-08T21:16:51.557Z,28
2023-12-08T21:46:01.308Z,30
2023-12-08T22:15:04.130Z,30
2023-12-08T22:44:01.700Z,27
2023-12-08T23:13:05.516Z,22
2023-12-08T23:42:00.262Z,21
